createdAt,value
2022-10-02T00:01:06.907Z,5.60
2022-10-02T00:06:22.196Z,6.50
2022-10-02T00:11:44.620Z,7.70
2022-10-02T00:16:52.814Z,5.90
2022-10-02T00:22:43.915Z,7.50
2022-10-02T00:28:25.007Z,8.50
2022-10-02T00:33:33.503Z,7.20
2022-10-02T00:38:55.142Z,7.50
2022-10-02T00:44:25.585Z,7.10
2022-10-02T00:49:37.467Z,7.50
2022-10-02T00:55:20.800Z,7.90
2022-10-02T01:00:24.263Z,8.60
2022-10-02T01:05:28.086Z,9.10
2022-10-02T01:10:32.520Z,8.30
2022-10-02T01:15:44.583Z,9.30
2022-10-02T01:20:52.740Z,9.10
2022-10-02T01:25:55.974Z,8.90
2022-10-02T01:31:10.458Z,9.10
2022-10-02T01:36:16.542Z,7.80
2022-10-02T01:41:19.766Z,9.00
2022-10-02T01:46:59.594Z,9.00
2022-10-02T01:52:42.834Z,8.90
2022-10-02T01:58:26.604Z,9.20
2022-10-02T02:03:35.870Z,8.00
2022-10-02T02:08:52.171Z,7.50
2022-10-02T02:14:17.600Z,7.20
2022-10-02T02:19:27.546Z,7.40
2022-10-02T02:24:39.827Z,8.70
2022-10-02T02:29:48.512Z,7.90
2022-10-02T02:35:02.075Z,7.20
2022-10-02T02:40:15.966Z,7.00
2022-10-02T02:45:30.745Z,7.20
2022-10-02T02:50:43.955Z,6.70
2022-10-02T02:56:00.792Z,6.30
2022-10-02T03:01:04.268Z,7.00
2022-10-02T03:06:16.417Z,7.50
2022-10-02T03:11:48.191Z,7.40
2022-10-02T03:17:29.710Z,6.50
2022-10-02T03:23:15.920Z,6.90
2022-10-02T03:28:56.507Z,6.50
2022-10-02T03:34:03.023Z,8.10
2022-10-02T03:39:25.671Z,6.70
2022-10-02T03:44:29.400Z,8.10
2022-10-02T03:49:32.583Z,8.00
2022-10-02T03:54:36.994Z,7.80
2022-10-02T03:59:56.022Z,7.40
2022-10-02T04:05:28.288Z,7.40
2022-10-02T04:10:57.611Z,7.90
2022-10-02T04:16:33.048Z,8.60
2022-10-02T04:21:42.182Z,8.10
2022-10-02T04:27:22.396Z,6.70
2022-10-02T04:32:33.075Z,7.50
2022-10-02T04:37:56.361Z,8.10
2022-10-02T04:43:42.882Z,6.90
2022-10-02T04:49:04.524Z,7.10
2022-10-02T04:54:29.043Z,6.60
2022-10-02T04:59:48.737Z,5.50
2022-10-02T05:05:49.185Z,5.60
2022-10-02T05:11:08.569Z,5.90
2022-10-02T05:16:42.769Z,5.10
2022-10-02T05:21:52.050Z,4.00
2022-10-02T05:26:58.022Z,4.00
2022-10-02T05:32:34.530Z,3.40
2022-10-02T05:38:01.785Z,4.20
2022-10-02T05:43:36.749Z,3.80
2022-10-02T05:48:49.280Z,3.60
2022-10-02T05:54:18.694Z,3.40
2022-10-02T05:59:36.751Z,3.30
2022-10-02T06:04:52.046Z,5.10
2022-10-02T06:10:11.246Z,2.70
2022-10-02T06:15:56.545Z,3.50
2022-10-02T06:21:10.987Z,3.30
2022-10-02T06:26:25.362Z,2.70
2022-10-02T06:31:39.382Z,3.10
2022-10-02T06:37:23.715Z,2.90
2022-10-02T06:43:10.150Z,3.20
2022-10-02T06:49:05.903Z,2.60
2022-10-02T06:54:33.286Z,2.70
2022-10-02T07:00:02.149Z,2.20
2022-10-02T07:05:57.164Z,2.60
2022-10-02T07:11:39.796Z,2.00
2022-10-02T07:17:07.605Z,3.20
2022-10-02T07:22:58.717Z,2.50
2022-10-02T07:28:34.526Z,2.70
2022-10-02T07:34:35.151Z,1.90
2022-10-02T07:39:56.369Z,3.20
2022-10-02T07:45:21.739Z,2.30
2022-10-02T07:50:41.494Z,2.10
2022-10-02T07:55:52.585Z,2.10
2022-10-02T08:01:03.606Z,2.70
2022-10-02T08:06:08.018Z,2.90
2022-10-02T08:11:30.588Z,3.30
2022-10-02T08:16:51.581Z,2.70
2022-10-02T08:22:08.623Z,3.60
2022-10-02T08:27:56.431Z,3.40
2022-10-02T08:32:59.906Z,2.80
2022-10-02T08:38:14.790Z,2.40
2022-10-02T08:44:03.256Z,4.10
2022-10-02T08:49:34.019Z,3.70
2022-10-02T08:55:08.145Z,3.40
2022-10-02T09:00:22.295Z,5.50
2022-10-02T09:06:23.813Z,6.00
2022-10-02T09:12:06.814Z,2.60
2022-10-02T09:17:15.565Z,3.30
2022-10-02T09:22:52.363Z,3.20
2022-10-02T09:28:35.906Z,2.70
2022-10-02T09:34:19.379Z,3.80
2022-10-02T09:40:31.585Z,3.70
2022-10-02T09:46:27.010Z,2.70
2022-10-02T09:51:57.683Z,3.30
2022-10-02T09:57:41.442Z,2.80
2022-10-02T10:03:22.956Z,4.20
2022-10-02T10:08:50.968Z,3.50
2022-10-02T10:14:30.742Z,2.90
2022-10-02T10:20:01.967Z,2.60
2022-10-02T10:25:54.846Z,4.20
2022-10-02T10:31:28.711Z,2.30
2022-10-02T10:36:53.530Z,3.10
2022-10-02T10:42:15.597Z,3.60
2022-10-02T10:47:57.935Z,3.20
2022-10-02T10:53:28.618Z,2.70
2022-10-02T10:59:35.104Z,3.10
2022-10-02T11:05:19.456Z,2.90
2022-10-02T11:11:08.149Z,2.30
2022-10-02T11:16:58.566Z,2.80
2022-10-02T11:22:46.016Z,3.60
2022-10-02T11:28:04.107Z,4.00
2022-10-02T11:33:44.554Z,3.30
2022-10-02T11:39:50.239Z,2.00
2022-10-02T11:45:37.445Z,2.10
2022-10-02T11:50:56.238Z,2.30
2022-10-02T11:56:26.996Z,2.70
2022-10-02T12:01:39.662Z,2.40
2022-10-02T12:07:08.789Z,2.30
2022-10-02T12:12:36.589Z,2.20
2022-10-02T12:18:03.903Z,2.20
2022-10-02T12:24:08.289Z,2.40
2022-10-02T12:29:29.357Z,1.50
2022-10-02T12:34:56.484Z,1.40
2022-10-02T12:40:26.373Z,1.60
2022-10-02T12:46:17.495Z,1.90
2022-10-02T12:52:28.953Z,1.90
2022-10-02T12:58:25.761Z,2.30
2022-10-02T13:03:41.277Z,2.40
2022-10-02T13:09:56.826Z,3.10
2022-10-02T13:15:04.639Z,1.90
2022-10-02T13:20:51.738Z,6.70
2022-10-02T13:26:13.594Z,2.80
2022-10-02T13:32:03.037Z,2.40
2022-10-02T13:37:40.104Z,3.00
2022-10-02T13:43:23.955Z,2.70
2022-10-02T13:49:01.177Z,2.50
2022-10-02T13:54:25.644Z,1.20
2022-10-02T13:59:42.187Z,1.70
2022-10-02T14:05:01.364Z,1.60
2022-10-02T14:10:29.010Z,2.40
2022-10-02T14:16:20.294Z,2.50
2022-10-02T14:21:35.729Z,2.10
2022-10-02T14:27:12.770Z,1.90
2022-10-02T14:32:38.708Z,2.20
2022-10-02T14:37:48.058Z,2.20
2022-10-02T14:43:20.246Z,2.30
2022-10-02T14:48:56.859Z,2.30
2022-10-02T14:54:54.423Z,1.90
2022-10-02T15:00:23.331Z,1.60
2022-10-02T15:06:04.331Z,1.40
2022-10-02T15:11:41.458Z,2.00
2022-10-02T15:17:19.965Z,3.40
2022-10-02T15:22:35.947Z,4.50
2022-10-02T15:28:18.049Z,3.80
2022-10-02T15:33:56.130Z,3.80
2022-10-02T15:39:24.228Z,4.10
2022-10-02T15:45:26.294Z,5.00
2022-10-02T15:50:55.625Z,3.30
2022-10-02T15:56:44.198Z,3.80
2022-10-02T16:02:02.378Z,4.00
2022-10-02T16:07:47.696Z,4.80
2022-10-02T16:13:03.584Z,6.90
2022-10-02T16:18:36.867Z,6.30
2022-10-02T16:24:15.932Z,5.40
2022-10-02T16:29:53.429Z,5.10
2022-10-02T16:35:33.750Z,5.30
2022-10-02T16:41:03.876Z,4.50
2022-10-02T16:46:25.039Z,7.20
2022-10-02T16:52:03.103Z,4.40
2022-10-02T16:57:39.398Z,3.50
2022-10-02T17:03:00.291Z,2.60
2022-10-02T17:08:15.111Z,3.10
2022-10-02T17:13:59.770Z,2.30
2022-10-02T17:19:24.303Z,3.00
2022-10-02T17:25:01.084Z,3.50
2022-10-02T17:30:27.361Z,3.20
2022-10-02T17:36:06.131Z,2.60
2022-10-02T17:41:28.523Z,4.30
2022-10-02T17:47:05.705Z,4.10
2022-10-02T17:53:04.644Z,3.80
2022-10-02T17:58:22.914Z,4.60
2022-10-02T18:09:14.931Z,3.80
2022-10-02T18:14:46.976Z,3.50
2022-10-02T18:20:17.323Z,3.50
2022-10-02T18:25:35.711Z,2.60
2022-10-02T18:30:59.886Z,4.00
2022-10-02T18:36:36.171Z,3.70
2022-10-02T18:42:13.401Z,3.50
2022-10-02T18:47:31.843Z,3.80
2022-10-02T18:52:47.956Z,4.10
2022-10-02T18:58:14.721Z,3.90
2022-10-02T19:03:58.537Z,4.50
2022-10-02T19:09:07.627Z,4.20
2022-10-02T19:14:35.183Z,5.60
2022-10-02T19:19:40.036Z,4.00
2022-10-02T19:24:48.160Z,4.30
2022-10-02T19:30:02.098Z,5.60
2022-10-02T19:35:19.471Z,5.30
2022-10-02T19:40:33.923Z,4.40
2022-10-02T19:45:42.653Z,4.80
2022-10-02T19:51:18.374Z,5.00
2022-10-02T19:56:41.435Z,4.60
2022-10-02T20:01:49.368Z,4.60
2022-10-02T20:06:58.234Z,4.60
2022-10-02T20:12:18.194Z,4.30
2022-10-02T20:17:22.216Z,4.60
2022-10-02T20:22:48.459Z,4.40
2022-10-02T20:28:02.822Z,4.90
2022-10-02T20:33:24.923Z,4.60
2022-10-02T20:38:52.473Z,4.40
2022-10-02T20:44:04.772Z,4.50
2022-10-02T20:50:00.602Z,5.60
2022-10-02T20:55:56.569Z,3.80
2022-10-02T21:01:11.502Z,3.90
2022-10-02T21:07:05.938Z,3.30
2022-10-02T21:13:02.623Z,4.00
2022-10-02T21:18:44.240Z,4.60
2022-10-02T21:24:18.378Z,3.70
2022-10-02T21:29:44.527Z,2.90
2022-10-02T21:35:06.159Z,2.30
2022-10-02T21:40:50.733Z,2.60
2022-10-02T21:46:12.578Z,2.20
2022-10-02T21:52:05.775Z,2.40
2022-10-02T21:57:33.961Z,2.20
2022-10-02T22:03:56.631Z,2.30
2022-10-02T22:09:42.215Z,2.20
2022-10-02T22:14:54.005Z,1.80
2022-10-02T22:20:38.469Z,2.10
2022-10-02T22:26:31.950Z,2.40
2022-10-02T22:32:36.682Z,2.10
2022-10-02T22:38:22.504Z,1.60
2022-10-02T22:44:03.572Z,2.30
2022-10-02T22:49:43.355Z,2.40
2022-10-02T22:54:57.475Z,1.90
2022-10-02T23:00:20.485Z,2.10
2022-10-02T23:05:41.839Z,1.50
2022-10-02T23:10:50.239Z,1.50
2022-10-02T23:16:15.635Z,2.10
2022-10-02T23:21:23.673Z,3.10
2022-10-02T23:26:36.936Z,2.30
2022-10-02T23:32:21.882Z,1.80
2022-10-02T23:37:34.199Z,1.80
2022-10-02T23:42:52.907Z,2.20
2022-10-02T23:48:11.983Z,1.50
2022-10-02T23:53:52.416Z,1.30
2022-10-02T23:59:21.974Z,2.00
